首页
METAR-TAF:

METAR-TAF

机场 :

Plantation Airpark

Sylvania, 喬治亞, 美国

纬度: 32-38-43N, 经度: 081-35-47W, 海拔: 57米

当前天气观测

该预报发布于21分钟前的13:55 UTC
风速3节,风向西转西南
温度 25°C
湿度 94%
气压 1020 hPa
多云层高于800英尺

METAR: KJYL 201355Z AUTO 25003KT BKN008 25/24 A3011 RMK AO2 LTG DSNT SE T02510235 PWINO

时间: 10:16 (14:16 UTC)


TAF: 丢失

超过4000个机场的气象观测和天气预报(METAR&TAF报告)。

可查询的气象台以黄色和红色小点在地图上表示。

将鼠标移到小点上方,可查看气象台名称。

然后点击查看天气观测和预报。

如需切换地图:点击带黑十字的绿色按钮放大地图;点击带横线的绿色按钮缩小地图;或者点击绿色箭头查看邻近地区的地图。


METAR-TAF: